Old Hickory Observed Data For Previous 48 Hours

Caption
Day and Hour Reservoir Elevation (behind dam)* Tailwater Elevation (below dam)* Average Hourly Discharge*
3/18/2019 1 AM CDT 445.15 412.55 75,900
3/18/2019 2 AM CDT 445.14 412.45 76,300
3/18/2019 3 AM CDT 445.15 412.36 76,100
3/18/2019 4 AM CDT 445.14 412.30 76,600
3/18/2019 5 AM CDT 445.14 412.24 76,600
3/18/2019 6 AM CDT 445.15 412.27 76,600
3/18/2019 7 AM CDT 445.13 412.23 77,100
3/18/2019 8 AM CDT 445.11 412.31 77,100
3/18/2019 9 AM CDT 445.13 412.23 76,600
3/18/2019 10 AM CDT 445.13 412.43 76,800
3/18/2019 11 AM CDT 445.13 412.53 76,800
3/18/2019 12 PM CDT 445.13 412.73 76,800
3/18/2019 1 PM CDT 445.06 412.76 76,300
3/18/2019 2 PM CDT 445.08 412.68 76,300
3/18/2019 3 PM CDT 445.06 412.66 76,300
3/18/2019 4 PM CDT 445.07 412.62 76,300
3/18/2019 5 PM CDT 445.08 412.58 76,300
3/18/2019 6 PM CDT 445.07 412.67 76,300
3/18/2019 7 PM CDT 445.03 412.66 76,300
3/18/2019 8 PM CDT 445.01 412.65 76,300
3/18/2019 9 PM CDT 445.01 412.65 76,300
3/18/2019 10 PM CDT 445.00 412.59 76,300
3/18/2019 11 PM CDT 444.94 412.62 76,300
3/19/2019 12 AM CDT 444.95 412.65 76,300
3/19/2019 1 AM CDT 444.93 412.51 76,300
3/19/2019 2 AM CDT 444.91 412.38 76,300
3/19/2019 3 AM CDT 444.89 412.27 76,300
3/19/2019 4 AM CDT 444.87 412.18 76,300
3/19/2019 5 AM CDT 444.85 412.10 76,100
3/19/2019 6 AM CDT 444.83 412.00 76,100
3/19/2019 7 AM CDT 444.81 412.25 76,100
3/19/2019 8 AM CDT 444.76 412.45 76,100
3/19/2019 9 AM CDT 444.76 412.36 76,100
3/19/2019 10 AM CDT 444.78 412.35 76,100
3/19/2019 11 AM CDT 444.77 411.25 68,500
3/19/2019 12 PM CDT 444.71 411.75 72,700
3/19/2019 1 PM CDT 444.74 411.70 70,800
3/19/2019 2 PM CDT 444.76 411.60 70,800
3/19/2019 3 PM CDT 444.76 411.57 70,800
3/19/2019 4 PM CDT 444.76 411.57 70,800
3/19/2019 5 PM CDT 444.75 411.50 70,800
3/19/2019 6 PM CDT 444.75 411.50 70,800
3/19/2019 7 PM CDT 444.72 411.44 71,400
3/19/2019 8 PM CDT 444.72 411.42 71,400
3/19/2019 9 PM CDT 444.70 411.39 71,400
3/19/2019 10 PM CDT 444.70 411.39 71,400
3/19/2019 11 PM CDT 444.70 411.36 71,400
3/20/2019 12 AM CDT 444.70 411.33 71,400
3/20/2019 1 AM CDT 444.69 411.25 71,800
3/20/2019 2 AM CDT 444.67 411.18 71,800
3/20/2019 3 AM CDT 444.66 411.11 71,800
3/20/2019 4 AM CDT 444.65 411.00 71,800
3/20/2019 5 AM CDT 444.64 410.89 71,800
3/20/2019 6 AM CDT 444.63 410.90 71,800
3/20/2019 7 AM CDT 444.62 411.95 71,800
3/20/2019 8 AM CDT 444.61 411.00 71,800

Elevations are in feet above sea level. Discharges are in cubic feet per second and are reported at the end of the hour.